Time;durP1;ratioP1;P1;durP2;ratioP2;P2;SDS_P1;SDS_P2;PMS_P1;PMS_P2;Temp;Humidity;BMP_temperature;BMP_pressure;BME280_temperature;BME280_humidity;BME280_pressure;Samples;Min_cycle;Max_cycle;Signal;HPM_P1;HPM_P2
2021/11/05 00:02:06;;;;;;;3.30;3.10;;;7.50;56.10;;;;;;4952651;29;20198;-88
2021/11/05 00:04:31;;;;;;;4.73;3.50;;;7.50;55.80;;;;;;4952811;29;20262;-89
2021/11/05 00:06:59;;;;;;;3.30;3.10;;;7.70;56.80;;;;;;4952160;29;20183;-88
2021/11/05 00:09:25;;;;;;;3.40;3.10;;;7.60;56.20;;;;;;4952474;29;20179;-88
2021/11/05 00:11:51;;;;;;;3.13;2.93;;;7.60;56.60;;;;;;4952432;29;20431;-88
2021/11/05 00:14:17;;;;;;;3.20;2.90;;;7.60;56.50;;;;;;4955157;29;20437;-89
2021/11/05 00:16:42;;;;;;;3.67;3.37;;;7.50;57.40;;;;;;4955952;29;20471;-89
2021/11/05 00:19:08;;;;;;;3.30;3.10;;;7.60;57.40;;;;;;4956123;29;20633;-89
2021/11/05 00:21:34;;;;;;;3.20;3.00;;;7.60;57.40;;;;;;4940163;29;20482;-88
2021/11/05 00:24:00;;;;;;;3.40;3.10;;;7.60;57.90;;;;;;4956054;29;20852;-88
2021/11/05 00:26:29;;;;;;;3.20;3.00;;;7.50;58.50;;;;;;4954567;29;20416;-86
2021/11/05 00:28:54;;;;;;;2.67;2.47;;;7.60;59.50;;;;;;4954376;29;20870;-85
2021/11/05 00:31:20;;;;;;;3.10;2.90;;;7.60;60.50;;;;;;4953985;29;20447;-86
2021/11/05 00:33:45;;;;;;;3.10;2.90;;;7.60;58.30;;;;;;4953998;29;20543;-86
2021/11/05 00:36:14;;;;;;;4.70;3.50;;;7.60;58.50;;;;;;4953847;29;20183;-86
2021/11/05 00:38:45;;;;;;;3.87;3.57;;;7.50;58.90;;;;;;4953698;29;20181;-86
2021/11/05 00:41:11;;;;;;;3.83;3.53;;;7.50;59.10;;;;;;4953333;29;20424;-86
2021/11/05 00:43:38;;;;;;;4.30;3.00;;;7.60;59.90;;;;;;4953208;29;20765;-85
2021/11/05 00:46:04;;;;;;;2.90;2.70;;;7.50;59.80;;;;;;4954559;29;20907;-88
2021/11/05 00:48:30;;;;;;;4.00;3.20;;;7.50;59.80;;;;;;4955995;29;20905;-88
2021/11/05 00:50:55;;;;;;;3.50;3.30;;;7.50;58.60;;;;;;4955186;29;20430;-88
2021/11/05 00:53:21;;;;;;;3.70;3.40;;;7.50;59.80;;;;;;4955191;29;20181;-89
2021/11/05 00:55:47;;;;;;;3.40;3.20;;;7.50;60.70;;;;;;4954682;29;20191;-89
2021/11/05 00:58:13;;;;;;;3.43;3.23;;;7.50;62.40;;;;;;4955172;29;20207;-89
2021/11/05 01:00:38;;;;;;;2.90;2.80;;;7.50;62.00;;;;;;4955831;29;20427;-89
2021/11/05 01:03:04;;;;;;;4.00;3.70;;;7.50;61.50;;;;;;4955119;29;20188;-88
2021/11/05 01:05:32;;;;;;;3.87;3.57;;;7.40;62.10;;;;;;4954937;29;20695;-88
2021/11/05 01:07:58;;;;;;;3.33;3.07;;;7.40;62.80;;;;;;4955158;29;20432;-88
2021/11/05 01:10:24;;;;;;;3.50;3.20;;;7.30;62.80;;;;;;4954196;29;20420;-86
2021/11/05 01:12:50;;;;;;;3.30;3.10;;;7.40;63.20;;;;;;4952216;29;20183;-85
2021/11/05 01:15:15;;;;;;;5.03;3.37;;;7.30;63.70;;;;;;4951759;29;20423;-85
2021/11/05 01:17:41;;;;;;;3.03;2.87;;;7.40;63.50;;;;;;4951548;29;20659;-85
2021/11/05 01:20:10;;;;;;;3.50;3.20;;;7.40;63.10;;;;;;4951948;29;20704;-86
2021/11/05 01:22:37;;;;;;;3.70;3.40;;;7.40;63.90;;;;;;4950932;29;20714;-85
2021/11/05 01:25:03;;;;;;;3.30;3.03;;;7.40;63.90;;;;;;4950952;28;20976;-85
2021/11/05 01:27:29;;;;;;;3.60;3.30;;;7.40;62.90;;;;;;4951897;29;20451;-87
2021/11/05 01:29:57;;;;;;;2.83;2.63;;;7.30;63.00;;;;;;4952566;29;20871;-86
2021/11/05 01:32:23;;;;;;;3.57;3.30;;;7.40;63.30;;;;;;4953145;29;20801;-86
2021/11/05 01:34:49;;;;;;;4.30;3.97;;;7.30;63.50;;;;;;4952535;29;20435;-86
2021/11/05 01:37:17;;;;;;;3.30;3.10;;;7.30;63.90;;;;;;4937927;29;20420;-86
2021/11/05 01:39:42;;;;;;;3.87;3.57;;;7.30;64.30;;;;;;4952678;29;20559;-86
2021/11/05 01:42:08;;;;;;;3.20;3.00;;;7.40;65.00;;;;;;4953052;29;20499;-86
2021/11/05 01:44:35;;;;;;;3.80;3.60;;;7.40;64.40;;;;;;4937062;29;20211;-86
2021/11/05 01:47:00;;;;;;;3.97;3.60;;;7.40;66.00;;;;;;4951107;29;20420;-86
2021/11/05 01:49:27;;;;;;;3.80;3.50;;;7.30;66.20;;;;;;4935331;29;20502;-86
2021/11/05 01:51:55;;;;;;;3.60;3.40;;;7.30;66.40;;;;;;4952343;29;20298;-87
2021/11/05 01:54:21;;;;;;;4.00;3.57;;;7.30;67.50;;;;;;4951387;29;20916;-86
2021/11/05 01:56:48;;;;;;;4.17;3.87;;;7.30;67.60;;;;;;4951683;29;20551;-86
2021/11/05 01:59:28;;;;;;;4.47;3.97;;;7.20;67.70;;;;;;4953131;29;20481;-87
2021/11/05 02:01:58;;;;;;;3.80;3.53;;;7.30;68.80;;;;;;4952842;29;20464;-87
2021/11/05 02:04:26;;;;;;;3.83;3.53;;;7.30;68.40;;;;;;4953871;29;20557;-88
2021/11/05 02:06:53;;;;;;;3.40;3.10;;;7.30;67.60;;;;;;4953918;29;20423;-89
2021/11/05 02:09:23;;;;;;;4.17;3.87;;;7.30;67.90;;;;;;4953476;29;20974;-89
2021/11/05 02:11:52;;;;;;;3.93;3.73;;;7.30;69.00;;;;;;4953260;29;20826;-87
2021/11/05 02:14:21;;;;;;;3.83;3.60;;;7.20;70.90;;;;;;4953568;29;20514;-89
2021/11/05 02:16:50;;;;;;;4.50;4.10;;;7.20;70.70;;;;;;4953224;29;20466;-87
2021/11/05 02:19:19;;;;;;;3.97;3.73;;;7.10;71.30;;;;;;4943703;29;21212;-86
2021/11/05 02:21:47;;;;;;;4.20;3.90;;;7.10;71.60;;;;;;4951925;29;20785;-86
2021/11/05 02:24:14;;;;;;;4.83;3.10;;;7.10;71.90;;;;;;4936219;29;20522;-86
2021/11/05 02:26:41;;;;;;;4.93;4.50;;;7.10;72.10;;;;;;4936742;29;20787;-87
2021/11/05 02:29:07;;;;;;;4.47;4.17;;;7.10;72.20;;;;;;4953333;29;20434;-86
2021/11/05 02:31:33;;;;;;;4.00;3.70;;;7.10;71.70;;;;;;4952413;29;20828;-88
2021/11/05 02:34:00;;;;;;;4.07;3.77;;;7.20;72.50;;;;;;4953099;29;20427;-87
2021/11/05 02:36:26;;;;;;;4.20;3.90;;;7.10;71.60;;;;;;4949169;28;20432;-87
2021/11/05 02:38:52;;;;;;;6.33;4.17;;;7.10;73.10;;;;;;4917612;29;20519;-87
2021/11/05 02:41:20;;;;;;;3.90;3.63;;;7.20;73.00;;;;;;4934603;29;21100;-87
2021/11/05 02:43:46;;;;;;;3.90;3.47;;;7.10;72.90;;;;;;4933050;29;20527;-87
2021/11/05 02:46:12;;;;;;;4.73;4.00;;;7.10;72.90;;;;;;4916958;29;20489;-87
2021/11/05 02:48:38;;;;;;;4.17;3.97;;;7.10;72.70;;;;;;4935349;29;20428;-87
2021/11/05 02:51:03;;;;;;;4.50;4.20;;;7.10;72.50;;;;;;4951909;29;20640;-87
2021/11/05 02:53:30;;;;;;;3.87;3.57;;;7.10;73.00;;;;;;4952151;29;20239;-88
2021/11/05 02:55:57;;;;;;;4.00;3.70;;;7.10;73.00;;;;;;4935582;29;20231;-87
2021/11/05 02:58:23;;;;;;;4.87;4.47;;;7.10;72.30;;;;;;4940900;29;20494;-87
2021/11/05 03:00:49;;;;;;;5.83;3.90;;;7.10;73.80;;;;;;4963859;29;20427;-87
2021/11/05 03:03:17;;;;;;;4.17;3.87;;;7.20;73.60;;;;;;4945514;29;20187;-87
2021/11/05 03:05:43;;;;;;;3.87;3.57;;;7.20;71.20;;;;;;4937075;29;20463;-87
2021/11/05 03:08:09;;;;;;;4.30;4.00;;;7.10;69.00;;;;;;4952443;29;20423;-87
2021/11/05 03:10:35;;;;;;;3.77;3.57;;;7.10;70.00;;;;;;4952303;29;20436;-87
2021/11/05 03:13:02;;;;;;;4.20;3.90;;;7.10;69.60;;;;;;4937107;29;20429;-86
2021/11/05 03:15:28;;;;;;;3.80;3.50;;;7.10;70.20;;;;;;4962303;29;20511;-88
2021/11/05 03:17:54;;;;;;;3.67;3.47;;;7.20;68.40;;;;;;4952210;29;20455;-89
2021/11/05 03:20:21;;;;;;;3.93;3.63;;;7.10;68.50;;;;;;4934765;29;20427;-89
2021/11/05 03:22:48;;;;;;;4.40;4.10;;;7.10;69.40;;;;;;4934683;29;20519;-89
2021/11/05 03:25:15;;;;;;;3.50;3.20;;;7.10;69.60;;;;;;4951406;29;20468;-89
2021/11/05 03:27:41;;;;;;;3.10;2.90;;;7.10;69.70;;;;;;4935157;29;20433;-88
2021/11/05 03:30:10;;;;;;;3.83;3.53;;;7.20;68.40;;;;;;4935795;29;20432;-88
2021/11/05 03:32:37;;;;;;;3.60;3.30;;;7.20;68.80;;;;;;4935105;29;20424;-88
2021/11/05 03:35:06;;;;;;;4.03;3.73;;;7.10;69.40;;;;;;4935393;29;20815;-88
2021/11/05 03:37:33;;;;;;;4.07;3.87;;;7.10;70.10;;;;;;4934350;29;20605;-89
2021/11/05 03:40:00;;;;;;;4.00;3.70;;;7.10;67.90;;;;;;4950045;29;20794;-86
2021/11/05 03:42:26;;;;;;;3.30;3.10;;;7.20;68.30;;;;;;4933984;29;20907;-87
2021/11/05 03:44:52;;;;;;;4.27;3.97;;;7.20;68.80;;;;;;4934922;29;20496;-87
2021/11/05 03:47:17;;;;;;;4.13;3.83;;;7.20;69.00;;;;;;4951112;28;20921;-86
2021/11/05 03:49:43;;;;;;;3.60;3.30;;;7.20;69.00;;;;;;4953882;29;20266;-86
2021/11/05 03:52:09;;;;;;;4.40;4.00;;;7.20;69.20;;;;;;4953372;29;20176;-87
2021/11/05 03:54:35;;;;;;;4.40;4.10;;;7.20;68.60;;;;;;4954199;29;20184;-87
2021/11/05 03:57:00;;;;;;;4.03;3.80;;;7.20;69.10;;;;;;4954595;29;20338;-87
2021/11/05 03:59:26;;;;;;;4.40;4.00;;;7.30;70.50;;;;;;4939019;29;20584;-86
2021/11/05 04:01:52;;;;;;;4.00;3.80;;;7.20;69.60;;;;;;4953989;29;20442;-87
2021/11/05 04:04:19;;;;;;;3.77;3.57;;;7.30;70.60;;;;;;4953251;29;20210;-87
2021/11/05 04:06:46;;;;;;;3.80;3.50;;;7.30;69.80;;;;;;4954326;29;20176;-88
2021/11/05 04:09:13;;;;;;;4.00;3.77;;;7.30;68.00;;;;;;4939010;29;20825;-87
2021/11/05 04:11:39;;;;;;;3.20;3.00;;;7.30;67.60;;;;;;4938261;29;20569;-87
2021/11/05 04:14:04;;;;;;;3.30;3.10;;;7.30;67.30;;;;;;4953484;29;20518;-86
2021/11/05 04:16:30;;;;;;;3.33;3.10;;;7.30;69.20;;;;;;4954263;29;20187;-87
2021/11/05 04:18:55;;;;;;;3.57;3.27;;;7.20;66.70;;;;;;4953891;29;20547;-87
2021/11/05 04:21:22;;;;;;;4.13;3.83;;;7.20;66.30;;;;;;4937595;29;20647;-88
2021/11/05 04:23:48;;;;;;;3.80;3.50;;;7.30;66.80;;;;;;4954133;29;20184;-87
2021/11/05 04:26:15;;;;;;;3.33;3.13;;;7.30;66.50;;;;;;4953760;29;20434;-87
2021/11/05 04:28:41;;;;;;;3.27;3.07;;;7.30;67.00;;;;;;4953417;29;20684;-87
2021/11/05 04:31:07;;;;;;;3.77;3.47;;;7.30;68.60;;;;;;4938007;29;20423;-87
2021/11/05 04:33:33;;;;;;;3.87;3.57;;;7.30;69.20;;;;;;4953312;29;20431;-87
2021/11/05 04:36:00;;;;;;;3.13;2.93;;;7.30;69.70;;;;;;4953490;29;20431;-86
2021/11/05 04:38:26;;;;;;;3.30;3.10;;;7.30;69.80;;;;;;4937165;29;20424;-87
2021/11/05 04:40:52;;;;;;;2.83;2.53;;;7.20;69.20;;;;;;4952946;29;20427;-86
2021/11/05 04:43:18;;;;;;;2.73;2.53;;;7.30;69.50;;;;;;4938334;29;20422;-87
2021/11/05 04:45:44;;;;;;;3.10;2.90;;;7.30;68.30;;;;;;4953379;29;20459;-87
2021/11/05 04:48:10;;;;;;;2.97;2.77;;;7.40;67.50;;;;;;4953236;29;20176;-87
2021/11/05 04:50:36;;;;;;;2.77;2.57;;;7.30;66.80;;;;;;4936601;29;20456;-86
2021/11/05 04:53:03;;;;;;;2.67;2.47;;;7.30;65.60;;;;;;4936734;29;20987;-87
2021/11/05 04:55:29;;;;;;;2.83;2.63;;;7.30;66.30;;;;;;4936461;29;20178;-87
2021/11/05 04:57:54;;;;;;;2.97;2.77;;;7.30;65.40;;;;;;4952706;29;20447;-87
2021/11/05 05:00:22;;;;;;;2.40;2.30;;;7.30;65.70;;;;;;4951526;28;20790;-86
2021/11/05 05:02:48;;;;;;;2.97;2.77;;;7.40;65.30;;;;;;4936879;29;20234;-87
2021/11/05 05:05:14;;;;;;;2.83;2.63;;;7.30;68.10;;;;;;4953903;29;20819;-87
2021/11/05 05:07:40;;;;;;;2.83;2.63;;;7.30;68.50;;;;;;4956972;29;20416;-88
2021/11/05 05:10:07;;;;;;;2.50;2.40;;;7.20;69.60;;;;;;4955385;29;20419;-88
2021/11/05 05:12:33;;;;;;;2.37;2.27;;;7.20;70.00;;;;;;4954459;29;20412;-87
2021/11/05 05:14:59;;;;;;;2.50;2.30;;;7.10;70.70;;;;;;4938148;29;20438;-86
2021/11/05 05:17:24;;;;;;;2.80;2.60;;;7.10;71.30;;;;;;4939407;29;20420;-87
2021/11/05 05:19:50;;;;;;;2.17;2.07;;;7.10;70.90;;;;;;4953504;29;20188;-86
2021/11/05 05:22:16;;;;;;;2.30;2.10;;;7.10;71.10;;;;;;4952645;29;20598;-86
2021/11/05 05:24:41;;;;;;;2.90;2.70;;;7.10;68.60;;;;;;4953157;29;20593;-85
2021/11/05 05:27:22;;;;;;;2.33;2.23;;;7.10;69.20;;;;;;4952662;29;20208;-86
2021/11/05 05:29:50;;;;;;;2.30;2.20;;;7.20;69.60;;;;;;4952086;29;20182;-86
2021/11/05 05:32:15;;;;;;;2.80;2.60;;;7.20;69.60;;;;;;4952814;29;20505;-86
2021/11/05 05:34:41;;;;;;;2.43;2.33;;;7.20;68.90;;;;;;4952940;29;20992;-87
2021/11/05 05:37:07;;;;;;;2.77;2.57;;;7.20;69.60;;;;;;4952224;29;20657;-86
2021/11/05 05:39:33;;;;;;;2.30;2.20;;;7.20;69.00;;;;;;4952195;29;20428;-84
2021/11/05 05:41:59;;;;;;;2.20;2.10;;;7.20;68.20;;;;;;4953471;29;20187;-86
2021/11/05 05:44:25;;;;;;;2.70;2.53;;;7.20;69.60;;;;;;4938864;29;20242;-86
2021/11/05 05:46:51;;;;;;;2.33;2.23;;;7.20;67.50;;;;;;4963276;29;20431;-86
2021/11/05 05:49:17;;;;;;;2.83;2.63;;;7.10;68.30;;;;;;4961699;29;20434;-86
2021/11/05 05:51:43;;;;;;;2.73;2.53;;;7.10;68.00;;;;;;4954759;29;20784;-86
2021/11/05 05:54:09;;;;;;;2.93;2.73;;;7.10;67.20;;;;;;4952396;29;20294;-87
2021/11/05 05:56:34;;;;;;;2.20;2.10;;;7.10;68.20;;;;;;4951364;29;20480;-86
2021/11/05 05:59:00;;;;;;;2.53;2.37;;;7.10;67.80;;;;;;4950908;29;20188;-86
2021/11/05 06:01:26;;;;;;;2.50;2.30;;;7.20;67.50;;;;;;4943673;29;20210;-85
2021/11/05 06:03:52;;;;;;;2.50;2.33;;;7.10;66.70;;;;;;4951127;29;20522;-87
2021/11/05 06:06:18;;;;;;;3.70;2.33;;;7.20;67.90;;;;;;4951346;29;20430;-86
2021/11/05 06:08:44;;;;;;;3.07;2.77;;;7.20;68.70;;;;;;4950888;29;20234;-86
2021/11/05 06:11:10;;;;;;;2.90;2.70;;;7.20;68.30;;;;;;4949582;28;20619;-85
2021/11/05 06:13:36;;;;;;;2.40;2.20;;;7.20;67.90;;;;;;4942996;29;20451;-85
2021/11/05 06:16:02;;;;;;;3.13;2.93;;;7.30;69.10;;;;;;4951029;29;20434;-85
2021/11/05 06:18:28;;;;;;;2.63;2.43;;;7.30;68.30;;;;;;4951367;29;20424;-86
2021/11/05 06:20:54;;;;;;;2.87;2.67;;;7.20;69.20;;;;;;4951401;29;20444;-84
2021/11/05 06:23:20;;;;;;;3.50;3.20;;;7.40;66.90;;;;;;4950751;29;20509;-86
2021/11/05 06:25:46;;;;;;;3.30;3.10;;;7.40;67.50;;;;;;4936995;29;20197;-86
2021/11/05 06:28:12;;;;;;;2.80;2.60;;;7.30;68.70;;;;;;4951228;29;20207;-87
2021/11/05 06:30:37;;;;;;;3.80;3.10;;;7.30;69.00;;;;;;4951510;29;20419;-87
2021/11/05 06:33:03;;;;;;;3.03;2.83;;;7.40;68.70;;;;;;4951168;29;20225;-87
2021/11/05 06:35:29;;;;;;;4.10;3.80;;;7.30;66.80;;;;;;4950834;29;20176;-87
2021/11/05 06:37:56;;;;;;;3.00;2.80;;;7.30;67.40;;;;;;4950814;29;20180;-86
2021/11/05 06:40:22;;;;;;;3.50;3.20;;;7.30;66.70;;;;;;4950672;29;20457;-86
2021/11/05 06:42:48;;;;;;;2.80;2.60;;;7.30;67.50;;;;;;4950656;29;20416;-86
2021/11/05 06:45:14;;;;;;;3.10;2.90;;;7.30;66.10;;;;;;4950978;29;20869;-85
2021/11/05 06:47:40;;;;;;;3.73;3.43;;;7.40;67.30;;;;;;4950137;29;20466;-86
2021/11/05 06:50:09;;;;;;;4.67;3.27;;;7.40;67.00;;;;;;4950639;29;20179;-86
2021/11/05 06:52:35;;;;;;;3.80;3.50;;;7.30;69.70;;;;;;4950773;29;20782;-87
2021/11/05 06:55:04;;;;;;;3.60;3.30;;;7.40;70.50;;;;;;4950753;29;20482;-85
2021/11/05 06:57:30;;;;;;;3.87;3.57;;;7.30;71.00;;;;;;4950442;29;20936;-85
2021/11/05 06:59:56;;;;;;;4.17;3.53;;;7.30;71.90;;;;;;4950862;29;20433;-86
2021/11/05 07:02:22;;;;;;;4.50;4.20;;;7.40;73.40;;;;;;4945707;29;20196;-84
2021/11/05 07:04:48;;;;;;;5.37;4.47;;;7.30;73.00;;;;;;4952153;29;20987;-85
2021/11/05 07:07:14;;;;;;;4.50;3.90;;;7.20;73.80;;;;;;4951381;29;20527;-86
2021/11/05 07:09:39;;;;;;;3.87;3.60;;;7.30;74.00;;;;;;4950888;29;20198;-86
2021/11/05 07:12:06;;;;;;;4.63;4.10;;;7.30;72.30;;;;;;4950597;29;20188;-90
2021/11/05 07:14:33;;;;;;;4.00;3.67;;;7.30;73.90;;;;;;4950194;29;20190;-90
2021/11/05 07:16:58;;;;;;;4.13;3.63;;;7.30;74.00;;;;;;4934372;29;20984;-88
2021/11/05 07:19:25;;;;;;;5.53;3.80;;;7.30;74.10;;;;;;4950567;29;20427;-88
2021/11/05 07:21:59;;;;;;;4.90;4.40;;;7.30;73.90;;;;;;4950019;29;20641;-87
2021/11/05 07:24:26;;;;;;;3.30;3.03;;;7.30;72.40;;;;;;4950811;29;20863;-88
2021/11/05 07:26:53;;;;;;;3.93;3.17;;;7.30;72.60;;;;;;4934677;29;20781;-88
2021/11/05 07:29:23;;;;;;;6.10;4.50;;;7.40;73.60;;;;;;4950718;29;20427;-83
2021/11/05 07:31:49;;;;;;;4.30;3.90;;;7.30;73.00;;;;;;4949931;29;20411;-85
2021/11/05 07:34:15;;;;;;;4.37;3.70;;;7.40;71.50;;;;;;4933948;29;20809;-84
2021/11/05 07:36:41;;;;;;;4.23;3.93;;;7.40;73.10;;;;;;4933566;29;20475;-84
2021/11/05 07:39:07;;;;;;;3.50;3.20;;;7.40;71.50;;;;;;4949738;29;20428;-84
2021/11/05 07:41:34;;;;;;;3.90;3.60;;;7.40;70.90;;;;;;4949935;29;20274;-85
2021/11/05 07:44:00;;;;;;;3.27;3.07;;;7.40;69.80;;;;;;4933210;29;20434;-84
2021/11/05 07:46:27;;;;;;;4.10;3.80;;;7.40;68.70;;;;;;4950319;29;20478;-84
2021/11/05 07:48:52;;;;;;;3.20;3.00;;;7.50;71.50;;;;;;4949408;29;20562;-84
2021/11/05 07:51:18;;;;;;;2.87;2.70;;;7.40;71.90;;;;;;4949572;29;20427;-84
2021/11/05 07:53:44;;;;;;;2.90;2.70;;;7.50;71.30;;;;;;4948942;29;20187;-85
2021/11/05 07:56:09;;;;;;;4.67;3.43;;;7.50;69.60;;;;;;4933418;29;20188;-85
2021/11/05 07:58:35;;;;;;;3.93;2.87;;;7.50;71.00;;;;;;4942292;29;20423;-85
2021/11/05 08:01:01;;;;;;;3.13;2.93;;;7.50;70.70;;;;;;4933059;29;20226;-84
2021/11/05 08:03:27;;;;;;;3.10;2.90;;;7.50;72.00;;;;;;4935639;29;20199;-85
2021/11/05 08:05:52;;;;;;;3.00;2.80;;;7.60;69.50;;;;;;4933281;29;20207;-84
2021/11/05 08:08:18;;;;;;;5.20;3.00;;;7.60;69.50;;;;;;4931204;29;20205;-85
2021/11/05 08:10:45;;;;;;;2.83;2.63;;;7.60;69.30;;;;;;4944390;29;20198;-86
2021/11/05 08:13:19;;;;;;;3.40;2.83;;;7.60;69.00;;;;;;4949260;29;20596;-86
2021/11/05 08:15:45;;;;;;;7.90;3.30;;;7.60;70.00;;;;;;4934175;29;20787;-86
2021/11/05 08:18:11;;;;;;;3.53;3.23;;;7.70;70.10;;;;;;4933939;29;20424;-86
2021/11/05 08:20:37;;;;;;;3.37;3.07;;;7.70;69.30;;;;;;4934757;29;20180;-85
2021/11/05 08:23:02;;;;;;;4.07;3.30;;;7.80;68.90;;;;;;4933756;29;20180;-85
2021/11/05 08:25:30;;;;;;;7.00;2.90;;;7.80;68.20;;;;;;4933254;29;20215;-85
2021/11/05 08:27:56;;;;;;;2.57;2.37;;;7.80;68.00;;;;;;4939050;29;20186;-84
2021/11/05 08:30:24;;;;;;;2.90;2.70;;;7.80;68.30;;;;;;4955434;29;20430;-85
2021/11/05 08:32:56;;;;;;;4.83;2.60;;;7.90;69.40;;;;;;4933096;29;20455;-85
2021/11/05 08:35:24;;;;;;;2.70;2.50;;;7.80;68.60;;;;;;4936699;29;20434;-84
2021/11/05 08:37:50;;;;;;;2.17;2.00;;;8.00;67.00;;;;;;4936510;29;20795;-84
2021/11/05 08:40:16;;;;;;;2.23;2.03;;;8.00;67.30;;;;;;4936699;29;20434;-85
2021/11/05 08:42:44;;;;;;;2.20;2.10;;;7.90;68.00;;;;;;4936544;29;20455;-88
2021/11/05 08:45:10;;;;;;;2.10;2.00;;;8.00;68.20;;;;;;4934300;29;20474;-87
2021/11/05 08:47:42;;;;;;;3.20;2.70;;;8.00;68.10;;;;;;4951614;29;20422;-86
2021/11/05 08:50:13;;;;;;;2.07;1.97;;;8.00;68.40;;;;;;4953031;29;20424;-85
2021/11/05 08:52:39;;;;;;;2.00;1.90;;;8.00;68.30;;;;;;4936674;29;20903;-87
2021/11/05 08:55:06;;;;;;;2.40;2.20;;;8.00;67.80;;;;;;4952838;29;20927;-87
2021/11/05 08:57:33;;;;;;;2.47;2.33;;;8.00;67.90;;;;;;4937913;29;20443;-86
2021/11/05 09:00:00;;;;;;;2.20;2.10;;;8.10;68.10;;;;;;4952668;29;20514;-87
2021/11/05 09:02:27;;;;;;;2.23;2.13;;;8.10;67.00;;;;;;4953152;29;20932;-88
2021/11/05 09:04:53;;;;;;;2.70;2.50;;;8.10;67.10;;;;;;4952866;29;20530;-87
2021/11/05 09:07:18;;;;;;;2.47;2.27;;;8.10;67.60;;;;;;4953501;29;20518;-87
2021/11/05 09:09:44;;;;;;;2.30;2.10;;;8.20;66.40;;;;;;4952034;29;20424;-87
2021/11/05 09:12:10;;;;;;;2.73;2.60;;;8.20;64.30;;;;;;4938489;29;20243;-88
2021/11/05 09:14:36;;;;;;;10.80;9.83;;;8.10;65.80;;;;;;4952413;29;20435;-86
2021/11/05 09:17:02;;;;;;;4.53;4.20;;;8.20;68.40;;;;;;4952272;29;20188;-87
2021/11/05 09:19:28;;;;;;;2.60;2.40;;;8.30;69.60;;;;;;4936272;29;20558;-87
2021/11/05 09:21:54;;;;;;;2.23;2.13;;;8.30;67.70;;;;;;4936357;29;20428;-87
2021/11/05 09:24:20;;;;;;;2.17;1.97;;;8.30;66.20;;;;;;4953118;29;20475;-86
2021/11/05 09:26:45;;;;;;;3.20;1.70;;;8.30;65.50;;;;;;4951994;29;20424;-87
2021/11/05 09:29:13;;;;;;;2.20;2.10;;;8.40;66.30;;;;;;4953585;29;20184;-88
2021/11/05 09:31:39;;;;;;;2.27;2.07;;;8.50;66.60;;;;;;4953912;29;20187;-88
2021/11/05 09:34:06;;;;;;;1.83;1.73;;;8.60;65.10;;;;;;4936740;29;20420;-87
2021/11/05 09:36:32;;;;;;;2.20;2.00;;;8.60;64.40;;;;;;4937034;29;20428;-88
2021/11/05 09:38:58;;;;;;;2.93;2.67;;;8.40;63.50;;;;;;4953030;29;20431;-89
2021/11/05 09:41:24;;;;;;;2.43;2.00;;;8.40;63.60;;;;;;4936552;29;20175;-87
2021/11/05 09:43:50;;;;;;;1.77;1.67;;;8.40;64.00;;;;;;4937285;29;20434;-87
2021/11/05 09:46:15;;;;;;;2.10;2.00;;;8.40;64.30;;;;;;4952215;28;20982;-88
2021/11/05 09:48:43;;;;;;;2.70;2.50;;;8.50;63.30;;;;;;4952296;29;20791;-87
2021/11/05 09:51:10;;;;;;;2.40;2.27;;;8.40;64.90;;;;;;4935963;29;20180;-87
2021/11/05 09:53:37;;;;;;;3.03;2.20;;;8.50;66.30;;;;;;4936000;29;20443;-87
2021/11/05 09:56:13;;;;;;;2.57;2.37;;;8.50;67.20;;;;;;4936103;29;20459;-87
2021/11/05 09:58:39;;;;;;;2.63;2.43;;;8.40;66.10;;;;;;4936030;29;20435;-87
2021/11/05 10:01:06;;;;;;;4.20;3.80;;;8.50;65.80;;;;;;4952512;29;20802;-87
2021/11/05 10:03:33;;;;;;;2.50;2.40;;;8.50;66.00;;;;;;4951710;29;20428;-86
2021/11/05 10:05:59;;;;;;;2.90;2.70;;;8.50;63.80;;;;;;4935510;29;20494;-86
2021/11/05 10:08:32;;;;;;;4.20;3.90;;;8.50;64.00;;;;;;4951361;29;20448;-86
2021/11/05 10:11:01;;;;;;;3.60;3.30;;;8.60;64.60;;;;;;4951859;29;20431;-86
2021/11/05 10:13:28;;;;;;;3.50;3.20;;;8.60;63.30;;;;;;4952408;29;20471;-86
2021/11/05 10:15:57;;;;;;;3.13;2.90;;;8.60;64.00;;;;;;4950831;29;20455;-86
2021/11/05 10:18:26;;;;;;;3.00;2.80;;;8.70;63.80;;;;;;4951118;29;20785;-86
2021/11/05 10:21:14;;;;;;;3.17;2.87;;;8.70;64.40;;;;;;4951064;29;21003;-86
2021/11/05 10:23:43;;;;;;;3.23;3.03;;;8.70;64.50;;;;;;4937213;29;20518;-86
2021/11/05 10:26:22;;;;;;;3.70;3.40;;;8.80;63.40;;;;;;4940837;29;20469;-86
2021/11/05 10:28:48;;;;;;;3.30;3.03;;;8.70;62.40;;;;;;4927422;29;20451;-86
2021/11/05 10:31:16;;;;;;;3.63;3.33;;;8.70;65.30;;;;;;4951117;29;20475;-87
2021/11/05 10:33:47;;;;;;;4.03;3.73;;;8.80;64.10;;;;;;4950616;29;20503;-88
2021/11/05 10:36:17;;;;;;;4.27;3.93;;;8.90;64.10;;;;;;4947746;29;20499;-87
2021/11/05 10:38:44;;;;;;;4.40;4.00;;;9.00;63.70;;;;;;4915419;29;20462;-87
2021/11/05 10:41:19;;;;;;;3.80;3.50;;;9.00;62.90;;;;;;4916012;29;20428;-85
2021/11/05 10:43:49;;;;;;;4.00;3.70;;;9.00;60.50;;;;;;4915646;29;20932;-85
2021/11/05 10:46:31;;;;;;;4.07;3.73;;;9.00;61.10;;;;;;4915524;29;20476;-86
2021/11/05 10:49:19;;;;;;;3.97;3.67;;;9.00;61.10;;;;;;4915563;29;20516;-85
2021/11/05 10:51:45;;;;;;;3.60;3.40;;;9.00;61.10;;;;;;4915947;29;20508;-85
2021/11/05 10:54:11;;;;;;;4.00;3.70;;;9.00;61.30;;;;;;4915634;29;20932;-85
2021/11/05 10:56:38;;;;;;;4.90;4.40;;;8.90;61.80;;;;;;4916366;29;20441;-93
2021/11/05 10:59:08;;;;;;;4.97;4.57;;;8.90;62.60;;;;;;4918874;29;20549;-91
2021/11/05 11:01:44;;;;;;;5.10;4.70;;;8.90;62.10;;;;;;4918393;29;20439;-92
2021/11/05 11:04:14;;;;;;;4.97;4.37;;;8.90;61.90;;;;;;4917671;29;20487;-93
2021/11/05 11:06:43;;;;;;;5.90;5.40;;;8.90;62.10;;;;;;4918012;29;20425;-91
2021/11/05 11:09:15;;;;;;;6.10;5.60;;;8.90;62.80;;;;;;4918496;29;20776;-89
2021/11/05 11:11:52;;;;;;;6.30;5.80;;;8.90;63.50;;;;;;4919557;29;20848;-92
2021/11/05 11:14:23;;;;;;;6.10;5.50;;;9.00;64.40;;;;;;4919317;29;20890;-93
2021/11/05 11:17:00;;;;;;;6.07;5.57;;;9.00;62.00;;;;;;4924634;29;20526;-92
2021/11/05 11:19:30;;;;;;;5.47;4.97;;;9.00;62.90;;;;;;4936447;29;20416;-93
2021/11/05 11:22:04;;;;;;;7.37;6.67;;;9.00;63.10;;;;;;4936793;29;20420;-92
2021/11/05 11:24:33;;;;;;;11.63;9.47;;;9.10;63.00;;;;;;4936818;29;21010;-92
2021/11/05 11:27:00;;;;;;;6.50;5.90;;;9.10;62.40;;;;;;4937728;29;20424;-92
2021/11/05 11:29:27;;;;;;;8.37;5.90;;;9.10;61.60;;;;;;4937309;29;20423;-92
2021/11/05 11:31:54;;;;;;;7.20;6.50;;;9.20;61.40;;;;;;4937043;29;20952;-94
2021/11/05 11:34:20;;;;;;;7.83;7.07;;;9.20;61.60;;;;;;4936196;29;20424;-92
2021/11/05 11:36:51;;;;;;;7.33;6.70;;;9.20;61.30;;;;;;4952747;29;20431;-91
2021/11/05 11:39:20;;;;;;;6.07;5.43;;;9.20;60.70;;;;;;4936504;29;20190;-90
2021/11/05 11:41:47;;;;;;;6.30;4.93;;;9.30;59.60;;;;;;4936217;29;20422;-89
2021/11/05 11:44:18;;;;;;;5.93;5.43;;;9.30;60.20;;;;;;4937157;29;20415;-89
2021/11/05 11:46:56;;;;;;;6.40;5.90;;;9.20;59.70;;;;;;4950053;29;20423;-90
2021/11/05 11:49:41;;;;;;;6.23;5.63;;;9.30;60.00;;;;;;4935904;29;20415;-90
2021/11/05 11:52:31;;;;;;;5.63;5.23;;;9.30;58.50;;;;;;4935696;29;20832;-90
2021/11/05 11:55:18;;;;;;;6.13;5.17;;;9.40;59.10;;;;;;4951843;29;20518;-90
2021/11/05 11:57:44;;;;;;;5.60;5.10;;;9.40;58.50;;;;;;4935174;29;20440;-91
2021/11/05 12:00:14;;;;;;;6.07;5.30;;;9.50;59.10;;;;;;4943742;29;20446;-90
2021/11/05 12:02:47;;;;;;;5.47;5.07;;;9.50;57.20;;;;;;4944155;29;20424;-90
2021/11/05 12:05:21;;;;;;;5.43;5.03;;;9.60;56.10;;;;;;4951890;29;20514;-90
2021/11/05 12:08:25;;;;;;;5.63;5.20;;;9.50;55.90;;;;;;4932761;29;20455;-90
2021/11/05 12:11:16;;;;;;;6.03;5.53;;;9.50;54.30;;;;;;4932853;29;20630;-90
2021/11/05 12:13:45;;;;;;;5.30;4.90;;;9.50;54.50;;;;;;4940012;29;20851;-89
2021/11/05 12:16:23;;;;;;;4.93;4.53;;;9.50;54.30;;;;;;4939964;29;20434;-90
2021/11/05 12:18:58;;;;;;;5.67;5.17;;;9.50;54.00;;;;;;4940885;29;20415;-89
2021/11/05 12:21:28;;;;;;;5.30;4.90;;;9.50;54.30;;;;;;4945022;29;20501;-90
2021/11/05 12:24:16;;;;;;;5.60;5.20;;;9.50;54.60;;;;;;4958196;29;20416;-90
2021/11/05 12:26:59;;;;;;;5.90;5.40;;;9.50;55.10;;;;;;4940157;29;20424;-90
2021/11/05 12:29:31;;;;;;;6.30;5.80;;;9.50;54.70;;;;;;4940901;29;20412;-92
2021/11/05 12:32:18;;;;;;;7.50;6.80;;;9.50;55.10;;;;;;4938784;29;20409;-91
2021/11/05 12:34:51;;;;;;;5.83;5.33;;;9.50;53.90;;;;;;4939135;29;20483;-92
2021/11/05 12:37:36;;;;;;;7.00;6.40;;;9.50;53.50;;;;;;4939567;29;20822;-92
2021/11/05 12:40:20;;;;;;;5.50;5.00;;;9.60;53.90;;;;;;4939971;29;20444;-92
2021/11/05 12:42:48;;;;;;;6.20;5.70;;;9.60;52.00;;;;;;4939974;29;20418;-92
2021/11/05 12:45:14;;;;;;;9.07;6.57;;;9.60;52.00;;;;;;4939640;29;20463;-92
2021/11/05 12:47:54;;;;;;;6.20;5.57;;;9.60;52.40;;;;;;4941425;29;20424;-91
2021/11/05 12:50:22;;;;;;;6.90;6.30;;;9.70;50.80;;;;;;4938363;29;20486;-89
2021/11/05 12:52:58;;;;;;;7.00;6.40;;;9.60;52.00;;;;;;4939319;29;20462;-89
2021/11/05 12:55:27;;;;;;;6.67;6.17;;;9.70;50.20;;;;;;4940097;29;20415;-93
2021/11/05 12:57:55;;;;;;;9.00;6.83;;;9.70;50.50;;;;;;4938496;29;20483;-90
2021/11/05 13:00:24;;;;;;;7.57;6.87;;;9.60;51.10;;;;;;4937435;29;20486;-90
2021/11/05 13:02:54;;;;;;;6.80;5.90;;;9.70;51.40;;;;;;4937609;29;20909;-90